createdAt,value
2023-05-10T00:00:23.780Z,100858.25
2023-05-10T00:00:55.950Z,100860.94
2023-05-10T00:01:30.760Z,100861.75
2023-05-10T00:02:03.494Z,100860.16
2023-05-10T00:02:36.032Z,100862.00
2023-05-10T00:03:10.968Z,100858.25
2023-05-10T00:03:43.409Z,100859.31
2023-05-10T00:04:15.728Z,100861.19
2023-05-10T00:04:50.502Z,100862.84
2023-05-10T00:05:22.919Z,100857.69
2023-05-10T00:05:55.119Z,100863.63
2023-05-10T00:06:30.137Z,100867.41
2023-05-10T00:07:04.944Z,100859.31
2023-05-10T00:07:37.102Z,100867.41
2023-05-10T00:08:12.011Z,100854.19
2023-05-10T00:08:44.175Z,100863.06
2023-05-10T00:09:16.617Z,100859.56
2023-05-10T00:09:51.336Z,100863.06
2023-05-10T00:10:23.675Z,100860.38
2023-05-10T00:10:55.963Z,100864.69
2023-05-10T00:11:30.883Z,100862.00
2023-05-10T00:12:03.092Z,100859.31
2023-05-10T00:12:35.318Z,100870.09
2023-05-10T00:13:10.391Z,100858.75
2023-05-10T00:13:42.616Z,100865.75
2023-05-10T00:14:14.762Z,100864.94
2023-05-10T00:14:49.484Z,100860.38
2023-05-10T00:15:21.758Z,100862.47
2023-05-10T00:15:54.308Z,100862.25
2023-05-10T00:16:29.170Z,100860.59
2023-05-10T00:17:01.780Z,100862.25
2023-05-10T00:17:34.196Z,100857.69
2023-05-10T00:18:09.070Z,100856.88
2023-05-10T00:18:41.529Z,100863.06
2023-05-10T00:19:13.813Z,100843.19
2023-05-10T00:19:49.325Z,100864.69
2023-05-10T00:20:21.628Z,100856.03
2023-05-10T00:20:53.930Z,100861.44
2023-05-10T00:21:29.462Z,100858.50
2023-05-10T00:22:04.344Z,100859.56
2023-05-10T00:22:36.610Z,100864.69
2023-05-10T00:23:11.428Z,100855.00
2023-05-10T00:23:43.597Z,100851.25
2023-05-10T00:24:15.837Z,100849.38
2023-05-10T00:24:50.661Z,100851.25
2023-05-10T00:25:22.873Z,100855.56
2023-05-10T00:25:55.064Z,100853.69
2023-05-10T00:26:27.287Z,100852.88
2023-05-10T00:27:05.090Z,100854.75
2023-05-10T00:27:37.342Z,100856.88
2023-05-10T00:28:09.561Z,100855.00
2023-05-10T00:28:46.157Z,100850.66
2023-05-10T00:29:18.408Z,100853.34
2023-05-10T00:29:50.927Z,100854.41
2023-05-10T00:30:25.955Z,100854.41
2023-05-10T00:30:58.236Z,100851.72
2023-05-10T00:31:30.464Z,100850.66
2023-05-10T00:32:06.153Z,100856.03
2023-05-10T00:32:38.367Z,100855.22
2023-05-10T00:33:10.944Z,100849.84
2023-05-10T00:33:45.713Z,100863.06
2023-05-10T00:34:17.881Z,100855.22
2023-05-10T00:34:50.697Z,100850.66
2023-05-10T00:35:25.486Z,100852.53
2023-05-10T00:35:57.774Z,100857.69
2023-05-10T00:36:29.994Z,100863.06
2023-05-10T00:37:07.281Z,100853.94
2023-05-10T00:37:39.450Z,100855.00
2023-05-10T00:38:11.692Z,100860.38
2023-05-10T00:38:46.957Z,100853.94
2023-05-10T00:39:19.279Z,100852.06
2023-05-10T00:39:51.483Z,100857.19
2023-05-10T00:40:26.442Z,100857.19
2023-05-10T00:41:03.794Z,100850.44
2023-05-10T00:41:38.226Z,100855.81
2023-05-10T00:42:12.086Z,100850.44
2023-05-10T00:42:46.872Z,100854.75
2023-05-10T00:43:19.090Z,100855.81
2023-05-10T00:43:52.956Z,100841.56
2023-05-10T00:44:27.792Z,100853.13
2023-05-10T00:44:59.997Z,100853.94
2023-05-10T00:45:33.772Z,100843.19
2023-05-10T00:46:08.852Z,100851.81
2023-05-10T00:46:41.778Z,100845.63
2023-05-10T00:47:14.186Z,100851.81
2023-05-10T00:47:49.654Z,100858.84
2023-05-10T00:48:23.374Z,100853.69
2023-05-10T00:48:55.610Z,100856.97
2023-05-10T00:49:30.645Z,100850.53
2023-05-10T00:50:03.348Z,100847.84
2023-05-10T00:50:36.101Z,100848.91
2023-05-10T00:51:10.900Z,100857.78
2023-05-10T00:51:45.667Z,100852.63
2023-05-10T00:52:20.864Z,100847.03
2023-05-10T00:52:56.245Z,100849.72
2023-05-10T00:53:28.916Z,100850.75
2023-05-10T00:54:01.499Z,100849.72
2023-05-10T00:54:36.296Z,100855.09
2023-05-10T00:55:10.856Z,100851.34
2023-05-10T00:55:43.555Z,100851.34
2023-05-10T00:56:18.962Z,100850.28
2023-05-10T00:56:51.251Z,100848.66
2023-05-10T00:57:23.849Z,100846.75
2023-05-10T00:57:58.976Z,100850.28
2023-05-10T00:58:32.143Z,100851.09
2023-05-10T00:59:04.603Z,100855.41
2023-05-10T00:59:39.758Z,100848.19
2023-05-10T01:00:13.666Z,100851.69
2023-05-10T01:00:47.615Z,100849.00
2023-05-10T01:01:23.436Z,100848.19
2023-05-10T01:01:57.180Z,100848.41
2023-05-10T01:02:29.464Z,100848.19
2023-05-10T01:03:06.663Z,100844.91
2023-05-10T01:03:40.253Z,100850.03
2023-05-10T01:04:13.902Z,100844.91
2023-05-10T01:04:48.940Z,100852.97
2023-05-10T01:05:21.390Z,100852.16
2023-05-10T01:05:53.731Z,100853.78
2023-05-10T01:06:28.943Z,100848.66
2023-05-10T01:07:01.133Z,100855.09
2023-05-10T01:07:35.872Z,100850.53
2023-05-10T01:08:12.480Z,100842.69
2023-05-10T01:08:44.736Z,100847.03
2023-05-10T01:09:18.302Z,100853.47
2023-05-10T01:09:53.233Z,100848.91
2023-05-10T01:10:25.538Z,100861.53
2023-05-10T01:10:58.291Z,100854.28
2023-05-10T01:11:33.241Z,100846.44
2023-05-10T01:12:08.111Z,100855.31
2023-05-10T01:12:43.488Z,100851.81
2023-05-10T01:13:27.368Z,100852.06
2023-05-10T01:14:00.144Z,100856.03
2023-05-10T01:14:32.366Z,100854.19
2023-05-10T01:15:09.264Z,100849.63
2023-05-10T01:15:42.031Z,100851.50
2023-05-10T01:16:17.700Z,100853.13
2023-05-10T01:16:51.083Z,100853.13
2023-05-10T01:17:24.203Z,100848.56
2023-05-10T01:18:00.408Z,100849.38
2023-05-10T01:18:34.913Z,100852.06
2023-05-10T01:19:13.215Z,100848.56
2023-05-10T01:19:48.183Z,100850.66
2023-05-10T01:20:20.448Z,100854.19
2023-05-10T01:21:05.842Z,100849.63
2023-05-10T01:21:47.315Z,100845.28
2023-05-10T01:22:46.499Z,100844.97
2023-05-10T01:23:39.901Z,100846.50
2023-05-10T01:24:33.536Z,100845.91
2023-05-10T01:25:56.180Z,100848.47
2023-05-10T01:26:59.578Z,100850.59
2023-05-10T01:28:05.137Z,100852.69
2023-05-10T01:29:13.006Z,100850.84
2023-05-10T01:30:17.592Z,100845.94
2023-05-10T01:31:08.445Z,100855.06
2023-05-10T01:32:15.605Z,100850.28
2023-05-10T01:32:54.104Z,100856.91
2023-05-10T01:33:32.873Z,100854.81
2023-05-10T01:34:10.624Z,100860.19
2023-05-10T01:34:49.376Z,100849.19
2023-05-10T01:35:38.434Z,100854.56
2023-05-10T01:36:17.844Z,100841.63
2023-05-10T01:36:54.233Z,100844.06
2023-05-10T01:37:37.341Z,100850.28
2023-05-10T01:38:16.398Z,100850.28
2023-05-10T01:38:53.077Z,100843.25
2023-05-10T01:39:32.869Z,100844.06
2023-05-10T01:40:14.811Z,100845.34
2023-05-10T01:41:04.686Z,100836.72
2023-05-10T01:41:43.368Z,100846.88
2023-05-10T01:42:21.344Z,100839.88
2023-05-10T01:43:03.812Z,100843.38
2023-05-10T01:43:44.207Z,100846.34
2023-05-10T01:44:19.451Z,100844.00
2023-05-10T01:45:06.238Z,100851.59
2023-05-10T01:45:43.072Z,100835.94
2023-05-10T01:46:19.071Z,100843.78
2023-05-10T01:47:05.381Z,100845.63
2023-05-10T01:47:43.125Z,100845.06
2023-05-10T01:48:18.968Z,100837.84
2023-05-10T01:48:55.536Z,100840.53
2023-05-10T01:49:32.386Z,100850.19
2023-05-10T01:50:10.258Z,100838.63
2023-05-10T01:50:46.661Z,100840.75
2023-05-10T01:51:30.462Z,100840.53
2023-05-10T01:52:21.368Z,100844.47
2023-05-10T01:52:56.718Z,100845.53
2023-05-10T01:53:30.367Z,100840.97
2023-05-10T01:54:08.573Z,100833.72
2023-05-10T01:54:46.374Z,100838.28
2023-05-10T01:55:22.718Z,100837.25
2023-05-10T01:56:00.289Z,100835.38
2023-05-10T01:56:34.541Z,100840.97
2023-05-10T01:57:09.969Z,100838.88
2023-05-10T01:57:46.009Z,100841.56
2023-05-10T01:58:25.109Z,100840.75
2023-05-10T01:58:58.495Z,100834.56
2023-05-10T01:59:37.367Z,100837.25
2023-05-10T02:00:14.646Z,100838.28
2023-05-10T02:00:50.712Z,100833.97
2023-05-10T02:01:24.067Z,100830.47
2023-05-10T02:02:04.624Z,100842.03
2023-05-10T02:02:41.002Z,100832.59
2023-05-10T02:03:15.027Z,100830.72
2023-05-10T02:03:51.582Z,100839.59
2023-05-10T02:04:24.943Z,100839.59
2023-05-10T02:04:59.616Z,100832.34
2023-05-10T02:05:36.779Z,100829.91
2023-05-10T02:06:11.905Z,100835.28
2023-05-10T02:06:46.415Z,100828.25
2023-05-10T02:07:22.133Z,100840.63
2023-05-10T02:07:55.331Z,100830.94
2023-05-10T02:08:28.513Z,100841.69
2023-05-10T02:09:05.215Z,100835.28
2023-05-10T02:09:38.428Z,100838.19
2023-05-10T02:10:12.545Z,100837.13
2023-05-10T02:10:49.409Z,100842.50
2023-05-10T02:11:22.665Z,100834.72
2023-05-10T02:11:55.758Z,100838.19
2023-05-10T02:12:30.165Z,100836.31
2023-05-10T02:13:07.344Z,100835.50
2023-05-10T02:13:41.314Z,100841.94
2023-05-10T02:14:14.624Z,100840.06
2023-05-10T02:14:50.721Z,100837.63
2023-05-10T02:15:25.984Z,100835.97
2023-05-10T02:15:58.738Z,100834.34
2023-05-10T02:16:34.651Z,100831.66
2023-05-10T02:17:10.878Z,100833.53
2023-05-10T02:17:44.541Z,100834.59
2023-05-10T02:18:20.737Z,100833.78
2023-05-10T02:18:54.143Z,100837.50
2023-05-10T02:19:27.756Z,100839.97
2023-05-10T02:20:05.689Z,100829.47
2023-05-10T02:20:39.805Z,100838.34
2023-05-10T02:21:13.711Z,100838.34
2023-05-10T02:21:49.642Z,100835.66
2023-05-10T02:22:23.600Z,100837.50
2023-05-10T02:22:57.403Z,100835.66
2023-05-10T02:23:33.290Z,100843.72
2023-05-10T02:24:06.750Z,100832.97
2023-05-10T02:24:41.095Z,100832.13
2023-05-10T02:25:17.922Z,100836.47
2023-05-10T02:25:52.482Z,100835.66
2023-05-10T02:26:28.185Z,100841.84
2023-05-10T02:27:04.396Z,100834.00
2023-05-10T02:27:38.049Z,100839.38
2023-05-10T02:28:12.737Z,100836.69
2023-05-10T02:28:48.403Z,100836.69
2023-05-10T02:29:21.633Z,100838.56
2023-05-10T02:29:54.426Z,100838.34
2023-05-10T02:30:29.515Z,100832.97
2023-05-10T02:31:04.919Z,100832.97
2023-05-10T02:31:39.997Z,100836.47
2023-05-10T02:32:16.338Z,100840.19
2023-05-10T02:32:52.951Z,100837.50
2023-05-10T02:33:26.927Z,100839.38
2023-05-10T02:34:00.168Z,100834.00
2023-05-10T02:34:35.697Z,100844.75
2023-05-10T02:35:09.675Z,100839.38
2023-05-10T02:35:42.842Z,100840.19
2023-05-10T02:36:19.070Z,100838.34
2023-05-10T02:36:52.500Z,100837.50
2023-05-10T02:37:26.769Z,100843.72
2023-05-10T02:38:03.046Z,100837.28
2023-05-10T02:38:37.724Z,100839.16
2023-05-10T02:39:13.861Z,100837.28
2023-05-10T02:39:49.872Z,100829.47
2023-05-10T02:40:26.791Z,100834.81
2023-05-10T02:41:01.144Z,100838.56
2023-05-10T02:41:36.953Z,100838.34
2023-05-10T02:42:09.971Z,100840.19
2023-05-10T02:42:45.080Z,100831.09
2023-05-10T02:43:22.260Z,100840.78
2023-05-10T02:43:58.440Z,100837.28
2023-05-10T02:44:32.314Z,100838.09
2023-05-10T02:45:12.038Z,100841.34
2023-05-10T02:45:48.315Z,100843.47
2023-05-10T02:46:20.869Z,100837.84
2023-05-10T02:46:57.151Z,100843.22
2023-05-10T02:47:32.546Z,100831.44
2023-05-10T02:48:05.397Z,100842.19
2023-05-10T02:48:40.297Z,100834.94
2023-05-10T02:49:12.749Z,100843.81
2023-05-10T02:49:45.000Z,100838.44
2023-05-10T02:50:19.874Z,100840.06
2023-05-10T02:50:56.204Z,100842.50
2023-05-10T02:51:36.238Z,100840.88
2023-05-10T02:52:10.272Z,100834.72
2023-05-10T02:52:47.577Z,100839.00
2023-05-10T02:53:34.130Z,100839.00
2023-05-10T02:54:13.281Z,100841.94
2023-05-10T02:54:48.624Z,100836.56
2023-05-10T02:55:26.280Z,100837.41
2023-05-10T02:56:02.001Z,100828.25
2023-05-10T02:56:37.647Z,100837.94
2023-05-10T02:57:12.453Z,100835.28
2023-05-10T02:57:54.998Z,100837.94
2023-05-10T02:58:27.777Z,100839.00
2023-05-10T02:59:00.065Z,100835.03
2023-05-10T02:59:35.469Z,100833.97
2023-05-10T03:00:09.657Z,100827.31
2023-05-10T03:00:42.008Z,100834.31
2023-05-10T03:01:16.796Z,100828.69
2023-05-10T03:01:49.256Z,100840.03
2023-05-10T03:02:22.298Z,100839.81
2023-05-10T03:02:57.491Z,100837.13
2023-05-10T03:03:33.255Z,100837.69
2023-05-10T03:04:05.745Z,100833.94
2023-05-10T03:04:38.025Z,100832.63
2023-05-10T03:05:12.859Z,100836.97
2023-05-10T03:05:45.165Z,100835.09
2023-05-10T03:06:17.554Z,100835.91
2023-05-10T03:06:49.949Z,100842.94
2023-05-10T03:07:24.776Z,100838.38
2023-05-10T03:07:57.569Z,100840.56
2023-05-10T03:08:30.631Z,100830.88
2023-05-10T03:09:06.908Z,100844.31
2023-05-10T03:09:39.177Z,100837.88
2023-05-10T03:10:12.191Z,100837.88
2023-05-10T03:10:59.511Z,100845.72
2023-05-10T03:11:43.451Z,100839.97
2023-05-10T03:12:25.380Z,100847.22
2023-05-10T03:13:11.637Z,100841.28
2023-05-10T03:13:57.700Z,100843.97
2023-05-10T03:14:43.675Z,100844.78
2023-05-10T03:15:26.230Z,100849.69
2023-05-10T03:16:03.242Z,100841.06
2023-05-10T03:16:44.797Z,100848.63
2023-05-10T03:17:26.512Z,100839.75
2023-05-10T03:18:06.780Z,100834.38
2023-05-10T03:18:48.058Z,100840.34
2023-05-10T03:19:27.575Z,100840.56
2023-05-10T03:20:05.527Z,100840.56
2023-05-10T03:20:45.368Z,100840.56
2023-05-10T03:21:20.092Z,100849.44
2023-05-10T03:21:58.331Z,100845.72
2023-05-10T03:22:36.906Z,100846.28
2023-05-10T03:23:14.960Z,100844.41
2023-05-10T03:23:53.738Z,100847.91
2023-05-10T03:24:32.070Z,100842.28
2023-05-10T03:25:07.969Z,100844.19
2023-05-10T03:25:42.474Z,100843.09
2023-05-10T03:26:24.273Z,100843.91
2023-05-10T03:27:00.468Z,100843.09
2023-05-10T03:27:33.604Z,100842.91
2023-05-10T03:28:09.981Z,100842.66
2023-05-10T03:28:43.100Z,100847.78
2023-05-10T03:29:16.132Z,100846.72
2023-05-10T03:29:52.377Z,100839.50
2023-05-10T03:30:25.613Z,100843.81
2023-05-10T03:30:58.941Z,100844.63
2023-05-10T03:31:34.022Z,100839.25
2023-05-10T03:32:06.487Z,100839.25
2023-05-10T03:32:38.968Z,100845.19
2023-05-10T03:33:16.697Z,100846.84
2023-05-10T03:33:52.992Z,100838.19
2023-05-10T03:34:31.978Z,100836.56
2023-05-10T03:35:11.349Z,100847.44
2023-05-10T03:35:45.319Z,100844.16
2023-05-10T03:36:20.255Z,100844.47
2023-05-10T03:36:52.623Z,100844.47
2023-05-10T03:37:25.186Z,100841.56
2023-05-10T03:37:59.927Z,100834.31
2023-05-10T03:38:32.180Z,100838.63
2023-05-10T03:39:04.952Z,100837.31
2023-05-10T03:39:39.788Z,100840.59
2023-05-10T03:40:14.404Z,100837.09
2023-05-10T03:40:51.159Z,100836.00
2023-05-10T03:41:23.545Z,100839.53
2023-05-10T03:41:55.729Z,100843.63
2023-05-10T03:42:30.676Z,100843.34
2023-05-10T03:43:02.830Z,100840.44
2023-05-10T03:43:35.216Z,100841.47
2023-05-10T03:44:10.285Z,100841.81
2023-05-10T03:44:42.607Z,100838.31
2023-05-10T03:45:14.941Z,100846.13
2023-05-10T03:45:49.735Z,100846.72
2023-05-10T03:46:22.038Z,100845.66
2023-05-10T03:46:54.438Z,100848.91
2023-05-10T03:47:26.636Z,100839.78
2023-05-10T03:48:01.747Z,100841.44
2023-05-10T03:48:36.649Z,100843.03
2023-05-10T03:49:08.783Z,100849.25
2023-05-10T03:49:45.239Z,100837.66
2023-05-10T03:50:18.589Z,100843.03
2023-05-10T03:50:51.005Z,100844.69
2023-05-10T03:51:29.180Z,100847.97
2023-05-10T03:52:01.357Z,100847.97
2023-05-10T03:52:33.606Z,100846.31
2023-05-10T03:53:08.367Z,100848.50
2023-05-10T03:53:40.542Z,100848.50
2023-05-10T03:54:13.013Z,100848.50
2023-05-10T03:54:47.739Z,100837.75
2023-05-10T03:55:20.134Z,100841.03
2023-05-10T03:55:52.323Z,100850.75
2023-05-10T03:56:27.085Z,100846.97
2023-05-10T03:56:59.985Z,100841.34
2023-05-10T03:57:32.652Z,100851.88
2023-05-10T03:58:08.158Z,100847.56
2023-05-10T03:58:40.389Z,100844.88
2023-05-10T03:59:12.686Z,100846.50
2023-05-10T03:59:47.481Z,100852.69
2023-05-10T04:00:20.198Z,100849.19
2023-05-10T04:00:56.532Z,100846.50
2023-05-10T04:01:31.289Z,100848.94
2023-05-10T04:02:04.034Z,100848.94
2023-05-10T04:02:36.456Z,100848.69
2023-05-10T04:03:11.338Z,100845.19
2023-05-10T04:03:47.099Z,100852.44
2023-05-10T04:04:22.977Z,100853.25
2023-05-10T04:04:55.893Z,100849.75
2023-05-10T04:05:28.054Z,100858.63
2023-05-10T04:06:01.272Z,100848.47
2023-05-10T04:06:36.414Z,100850.34
2023-05-10T04:07:08.719Z,100851.16
2023-05-10T04:07:40.906Z,100853.03
2023-05-10T04:08:13.134Z,100854.66
2023-05-10T04:08:47.858Z,100853.84
2023-05-10T04:09:20.116Z,100850.88
2023-05-10T04:09:52.411Z,100856.84
2023-05-10T04:10:27.216Z,100851.47
2023-05-10T04:11:07.191Z,100853.34
2023-05-10T04:11:42.057Z,100859.53
2023-05-10T04:12:14.328Z,100854.97
2023-05-10T04:12:46.607Z,100852.84
2023-05-10T04:13:21.908Z,100851.78
2023-05-10T04:13:54.591Z,100856.13
2023-05-10T04:14:26.831Z,100850.50
2023-05-10T04:15:02.489Z,100853.75
2023-05-10T04:15:34.918Z,100852.13
2023-05-10T04:16:07.508Z,100860.78
2023-05-10T04:16:42.316Z,100860.78
2023-05-10T04:17:14.556Z,100858.09
2023-05-10T04:17:47.051Z,100861.81
2023-05-10T04:18:21.813Z,100857.25
2023-05-10T04:18:56.576Z,100856.44
2023-05-10T04:19:30.827Z,100861.00
2023-05-10T04:20:05.819Z,100857.50
2023-05-10T04:20:38.121Z,100863.47
2023-05-10T04:21:15.993Z,100858.09
2023-05-10T04:21:48.135Z,100856.44
2023-05-10T04:22:20.326Z,100861.00
2023-05-10T04:22:55.063Z,100856.69
2023-05-10T04:23:28.197Z,100859.38
2023-05-10T04:24:00.334Z,100857.75
2023-05-10T04:24:35.036Z,100856.13
2023-05-10T04:25:08.466Z,100855.31
2023-05-10T04:25:40.816Z,100857.41
2023-05-10T04:26:15.646Z,100864.44
2023-05-10T04:26:47.830Z,100860.09
2023-05-10T04:27:19.961Z,100862.00
2023-05-10T04:27:55.575Z,100854.72
2023-05-10T04:28:28.613Z,100858.50
2023-05-10T04:29:01.007Z,100862.25
2023-05-10T04:29:35.750Z,100860.38
2023-05-10T04:30:09.375Z,100866.56
2023-05-10T04:30:41.738Z,100861.19
2023-05-10T04:31:16.629Z,100864.69
2023-05-10T04:31:50.037Z,100860.09
2023-05-10T04:32:22.289Z,100861.75
2023-05-10T04:32:57.097Z,100867.13
2023-05-10T04:33:29.211Z,100868.19
2023-05-10T04:34:06.844Z,100862.78
2023-05-10T04:34:39.098Z,100859.53
2023-05-10T04:35:16.008Z,100864.94
2023-05-10T04:35:48.190Z,100864.13
2023-05-10T04:36:20.346Z,100863.28
2023-05-10T04:36:55.119Z,100862.47
2023-05-10T04:37:27.363Z,100865.44
2023-05-10T04:37:59.485Z,100865.44
2023-05-10T04:38:34.320Z,100871.03
2023-05-10T04:39:06.648Z,100864.03
2023-05-10T04:39:40.282Z,100870.22
2023-05-10T04:40:17.195Z,100867.53
2023-05-10T04:40:49.544Z,100857.81
2023-05-10T04:41:21.838Z,100862.16
2023-05-10T04:41:56.782Z,100863.19
2023-05-10T04:42:29.070Z,100859.69
2023-05-10T04:43:01.505Z,100869.63
2023-05-10T04:43:36.501Z,100868.34
2023-05-10T04:44:08.661Z,100861.31
2023-05-10T04:44:40.831Z,100861.09
2023-05-10T04:45:15.792Z,100868.91
2023-05-10T04:45:48.163Z,100866.22
2023-05-10T04:46:20.462Z,100856.28
2023-05-10T04:46:55.308Z,100864.94
2023-05-10T04:47:27.589Z,100864.13
2023-05-10T04:47:59.837Z,100857.69
2023-05-10T04:48:34.918Z,100861.75
2023-05-10T04:49:09.647Z,100867.94
2023-05-10T04:49:41.786Z,100864.44
2023-05-10T04:50:16.766Z,100862.56
2023-05-10T04:50:49.093Z,100862.31
2023-05-10T04:51:21.730Z,100861.28
2023-05-10T04:51:56.557Z,100857.50
2023-05-10T04:52:28.813Z,100863.97
2023-05-10T04:53:01.085Z,100854.00
2023-05-10T04:53:36.027Z,100859.38
2023-05-10T04:54:08.308Z,100857.75
2023-05-10T04:54:40.513Z,100862.06
2023-05-10T04:55:15.317Z,100858.59
2023-05-10T04:55:47.907Z,100855.88
2023-05-10T04:56:20.106Z,100859.38
2023-05-10T04:56:54.931Z,100860.19
2023-05-10T04:57:27.289Z,100861.00
2023-05-10T04:58:00.239Z,100859.97
2023-05-10T04:58:34.979Z,100858.09
2023-05-10T04:59:07.195Z,100855.16
2023-05-10T04:59:39.440Z,100859.72
2023-05-10T05:00:15.729Z,100852.69
2023-05-10T05:00:48.080Z,100860.53
2023-05-10T05:01:20.266Z,100851.38
2023-05-10T05:01:55.056Z,100858.41
2023-05-10T05:02:27.509Z,100858.41
2023-05-10T05:02:59.861Z,100863.78
2023-05-10T05:03:34.854Z,100855.47
2023-05-10T05:04:09.655Z,100856.03
2023-05-10T05:04:44.429Z,100857.66
2023-05-10T05:05:16.791Z,100866.34
2023-05-10T05:05:49.206Z,100855.56
2023-05-10T05:06:25.974Z,100856.13
2023-05-10T05:06:58.301Z,100860.44
2023-05-10T05:07:31.816Z,100863.97
2023-05-10T05:08:07.519Z,100859.41
2023-05-10T05:08:39.693Z,100865.34
2023-05-10T05:09:11.839Z,100865.09
2023-05-10T05:09:46.551Z,100864.88
2023-05-10T05:10:19.140Z,100862.72
2023-05-10T05:10:52.401Z,100861.44
2023-05-10T05:11:27.217Z,100856.06
2023-05-10T05:11:59.472Z,100857.66
2023-05-10T05:12:31.667Z,100859.28
2023-05-10T05:13:06.493Z,100867.97
2023-05-10T05:13:38.879Z,100860.69
2023-05-10T05:14:13.600Z,100863.13
2023-05-10T05:14:45.729Z,100868.28
2023-05-10T05:15:18.234Z,100861.00
2023-05-10T05:15:52.974Z,100861.56
2023-05-10T05:16:25.258Z,100859.69
2023-05-10T05:17:00.044Z,100864.56
2023-05-10T05:17:32.720Z,100859.19
2023-05-10T05:18:05.391Z,100862.47
2023-05-10T05:18:40.241Z,100865.16
2023-05-10T05:19:15.500Z,100863.59
2023-05-10T05:19:47.684Z,100862.53
2023-05-10T05:20:22.717Z,100863.09
2023-05-10T05:20:54.895Z,100862.31
2023-05-10T05:21:28.276Z,100862.84
2023-05-10T05:22:03.122Z,100868.25
2023-05-10T05:22:35.335Z,100866.38
2023-05-10T05:23:07.500Z,100869.88
2023-05-10T05:23:42.244Z,100868.81
2023-05-10T05:24:14.423Z,100868.81
2023-05-10T05:24:49.509Z,100861.81
2023-05-10T05:25:21.791Z,100865.31
2023-05-10T05:25:53.988Z,100864.25
2023-05-10T05:26:28.945Z,100859.66
2023-05-10T05:27:02.014Z,100864.25
2023-05-10T05:27:34.312Z,100863.16
2023-05-10T05:28:09.157Z,100868.81
2023-05-10T05:28:41.329Z,100863.44
2023-05-10T05:29:13.515Z,100867.50
2023-05-10T05:29:48.234Z,100862.13
2023-05-10T05:30:20.618Z,100862.13
2023-05-10T05:30:52.897Z,100865.41
2023-05-10T05:31:27.679Z,100862.44
2023-05-10T05:32:00.039Z,100867.81
2023-05-10T05:32:32.407Z,100859.50
2023-05-10T05:33:07.568Z,100858.91
2023-05-10T05:33:39.815Z,100858.69
2023-05-10T05:34:14.611Z,100864.88
2023-05-10T05:34:49.593Z,100859.75
2023-05-10T05:35:21.992Z,100864.31
2023-05-10T05:35:54.273Z,100865.94
2023-05-10T05:36:29.075Z,100857.03
2023-05-10T05:37:01.469Z,100862.44
2023-05-10T05:37:33.766Z,100855.16
2023-05-10T05:38:08.608Z,100866.75
2023-05-10T05:38:41.475Z,100860.56
2023-05-10T05:39:13.701Z,100861.13
2023-05-10T05:39:49.348Z,100865.19
2023-05-10T05:40:21.678Z,100872.22
2023-05-10T05:40:53.961Z,100867.66
2023-05-10T05:41:28.752Z,100870.91
2023-05-10T05:42:00.975Z,100865.28
2023-05-10T05:42:33.457Z,100868.78
2023-05-10T05:43:08.269Z,100863.16
2023-05-10T05:43:40.557Z,100862.88
2023-05-10T05:44:12.839Z,100866.16
2023-05-10T05:44:47.705Z,100865.91
2023-05-10T05:45:20.083Z,100866.72
2023-05-10T05:45:56.196Z,100865.41
2023-05-10T05:46:28.487Z,100868.94
2023-05-10T05:47:00.762Z,100864.59
2023-05-10T05:47:35.507Z,100861.91
2023-05-10T05:48:07.732Z,100868.94
2023-05-10T05:49:06.993Z,100863.53
2023-05-10T05:49:39.315Z,100870.53
2023-05-10T05:50:14.372Z,100871.13
2023-05-10T05:50:46.839Z,100871.94
2023-05-10T05:51:19.093Z,100867.38
2023-05-10T05:52:37.253Z,100867.69
2023-05-10T05:53:10.387Z,100867.09
2023-05-10T05:53:42.496Z,100870.59
2023-05-10T05:54:17.183Z,100871.69
2023-05-10T05:54:49.335Z,100864.66
2023-05-10T05:55:21.491Z,100869.00
2023-05-10T05:55:58.337Z,100869.78
2023-05-10T05:56:30.534Z,100864.66
2023-05-10T05:57:02.733Z,100868.19
2023-05-10T05:57:37.469Z,100869.00
2023-05-10T05:58:09.688Z,100870.88
2023-05-10T05:58:44.777Z,100865.50
2023-05-10T05:59:16.878Z,100865.50
2023-05-10T05:59:49.523Z,100865.22
2023-05-10T06:00:25.270Z,100872.47
2023-05-10T06:00:57.962Z,100867.09
2023-05-10T06:01:35.516Z,100867.09
2023-05-10T06:02:07.810Z,100864.66
2023-05-10T06:02:40.214Z,100864.66
2023-05-10T06:03:15.143Z,100864.41
2023-05-10T06:03:47.618Z,100870.59
2023-05-10T06:04:20.264Z,100866.03
2023-05-10T06:04:54.967Z,100863.34
2023-05-10T06:05:27.153Z,100863.63
2023-05-10T06:06:01.856Z,100865.22
2023-05-10T06:06:34.039Z,100867.09
2023-05-10T06:07:06.259Z,100868.72
2023-05-10T06:07:43.857Z,100868.50
2023-05-10T06:08:16.133Z,100861.47
2023-05-10T06:08:48.291Z,100872.81
2023-05-10T06:09:24.909Z,100871.50
2023-05-10T06:09:57.271Z,100869.03
2023-05-10T06:10:29.407Z,100863.41
2023-05-10T06:11:05.345Z,100869.41
2023-05-10T06:11:37.992Z,100864.03
2023-05-10T06:12:10.335Z,100865.38
2023-05-10T06:12:47.719Z,100866.22
2023-05-10T06:13:19.978Z,100865.16
2023-05-10T06:13:52.188Z,100862.19
2023-05-10T06:14:27.094Z,100862.75
2023-05-10T06:14:59.375Z,100867.91
2023-05-10T06:15:31.601Z,100863.06
2023-05-10T06:16:06.725Z,100859.06
2023-05-10T06:16:38.971Z,100853.69
2023-05-10T06:17:11.158Z,100863.94
2023-05-10T06:17:45.949Z,100859.94
2023-05-10T06:18:18.556Z,100864.03
2023-05-10T06:18:55.563Z,100860.81
2023-05-10T06:19:28.490Z,100863.50
2023-05-10T06:20:03.241Z,100856.22
2023-05-10T06:20:38.157Z,100865.69
2023-05-10T06:21:12.964Z,100861.13
2023-05-10T06:21:45.118Z,100860.88
2023-05-10T06:22:17.287Z,100864.13
2023-05-10T06:22:54.595Z,100858.47
2023-05-10T06:23:26.741Z,100859.28
2023-05-10T06:24:01.528Z,100856.09
2023-05-10T06:24:33.673Z,100861.47
2023-05-10T06:25:09.719Z,100855.59
2023-05-10T06:25:41.841Z,100856.41
2023-05-10T06:26:16.545Z,100863.19
2023-05-10T06:26:50.902Z,100862.13
2023-05-10T06:27:25.850Z,100858.09
2023-05-10T06:28:01.120Z,100859.47
2023-05-10T06:28:34.653Z,100852.75
2023-05-10T06:29:07.140Z,100859.25
2023-05-10T06:29:43.004Z,100858.75
2023-05-10T06:30:19.533Z,100858.25
2023-05-10T06:30:54.316Z,100856.91
2023-05-10T06:31:26.531Z,100857.50
2023-05-10T06:32:01.261Z,100856.97
2023-05-10T06:32:33.892Z,100855.63
2023-05-10T06:33:08.709Z,100858.91
2023-05-10T06:33:41.525Z,100858.38
2023-05-10T06:34:14.673Z,100853.56
2023-05-10T06:34:49.372Z,100853.31
2023-05-10T06:35:21.789Z,100851.16
2023-05-10T06:35:56.500Z,100851.72
2023-05-10T06:36:28.750Z,100859.31
2023-05-10T06:37:04.706Z,100856.09
2023-05-10T06:37:36.874Z,100853.97
2023-05-10T06:38:14.358Z,100862.09
2023-05-10T06:38:46.619Z,100855.38
2023-05-10T06:39:18.825Z,100856.75
2023-05-10T06:39:53.525Z,100862.69